Terminal Aerodrome Forecast
Issued by NWS

Home | Current Version | Previous Version | Text Only | Print | Product List | Glossary On
Versions: 1 2 3 4 5 6 7 8 9 10 11 12 13 14 15 16 17 18 19 20 21 22
000
FTUS43 KAPX 212320
TAFAPN
TAF
KAPN 212320Z 2200/2224 16006KT 6SM BR SCT012 OVC050
      TEMPO 2200/2202 BKN012
     FM221500 14009KT P6SM SCT010 BKN060
     FM221800 14009KT P6SM BKN012=

USA.gov is the U.S. government's official web portal to all federal, state and local government web resources and services.